sensor_id;sensor_type;location;lat;lon;timestamp;pressure;altitude;pressure_sealevel;temperature;humidity
71457;BME280;59263;48.160;11.752;2022-07-01T00:00:24;95648.72;;;17.94;100.00
71457;BME280;59263;48.160;11.752;2022-07-01T00:02:49;95656.47;;;18.02;100.00
71457;BME280;59263;48.160;11.752;2022-07-01T00:05:15;95672.38;;;18.07;100.00
71457;BME280;59263;48.160;11.752;2022-07-01T00:07:40;95663.53;;;18.08;100.00
71457;BME280;59263;48.160;11.752;2022-07-01T00:10:06;95673.81;;;18.10;100.00
71457;BME280;59263;48.160;11.752;2022-07-01T00:12:31;95665.13;;;18.09;100.00
71457;BME280;59263;48.160;11.752;2022-07-01T00:14:57;95670.38;;;18.09;100.00
71457;BME280;59263;48.160;11.752;2022-07-01T00:17:22;95671.38;;;18.08;100.00
71457;BME280;59263;48.160;11.752;2022-07-01T00:19:47;95679.47;;;18.13;100.00
71457;BME280;59263;48.160;11.752;2022-07-01T00:22:15;95667.59;;;18.18;100.00
71457;BME280;59263;48.160;11.752;2022-07-01T00:24:40;95680.06;;;18.16;100.00
71457;BME280;59263;48.160;11.752;2022-07-01T00:27:05;95687.16;;;18.22;100.00
71457;BME280;59263;48.160;11.752;2022-07-01T00:29:30;95696.91;;;18.34;100.00
71457;BME280;59263;48.160;11.752;2022-07-01T00:31:58;95703.19;;;18.40;100.00
71457;BME280;59263;48.160;11.752;2022-07-01T00:34:23;95702.97;;;18.42;100.00
71457;BME280;59263;48.160;11.752;2022-07-01T00:36:48;95706.19;;;18.37;100.00
71457;BME280;59263;48.160;11.752;2022-07-01T00:39:14;95711.81;;;18.34;100.00
71457;BME280;59263;48.160;11.752;2022-07-01T00:41:39;95719.97;;;18.52;100.00
71457;BME280;59263;48.160;11.752;2022-07-01T00:44:04;95726.00;;;18.53;100.00
71457;BME280;59263;48.160;11.752;2022-07-01T00:46:30;95733.44;;;18.49;100.00
71457;BME280;59263;48.160;11.752;2022-07-01T00:48:58;95730.44;;;18.52;100.00
71457;BME280;59263;48.160;11.752;2022-07-01T00:51:25;95737.72;;;18.50;100.00
71457;BME280;59263;48.160;11.752;2022-07-01T00:53:50;95739.75;;;18.55;100.00
71457;BME280;59263;48.160;11.752;2022-07-01T00:56:16;95746.56;;;18.49;100.00
71457;BME280;59263;48.160;11.752;2022-07-01T00:58:42;95748.94;;;18.44;100.00
71457;BME280;59263;48.160;11.752;2022-07-01T01:01:09;95744.84;;;18.35;100.00
71457;BME280;59263;48.160;11.752;2022-07-01T01:03:35;95744.00;;;18.28;100.00
71457;BME280;59263;48.160;11.752;2022-07-01T01:06:00;95744.41;;;18.25;100.00
71457;BME280;59263;48.160;11.752;2022-07-01T01:08:26;95746.09;;;18.39;100.00
71457;BME280;59263;48.160;11.752;2022-07-01T01:10:52;95739.22;;;18.38;99.41
71457;BME280;59263;48.160;11.752;2022-07-01T01:13:18;95743.31;;;18.47;99.77
71457;BME280;59263;48.160;11.752;2022-07-01T01:15:43;95753.72;;;18.34;100.00
71457;BME280;59263;48.160;11.752;2022-07-01T01:18:08;95748.00;;;18.24;100.00
71457;BME280;59263;48.160;11.752;2022-07-01T01:20:37;95755.28;;;18.22;100.00
71457;BME280;59263;48.160;11.752;2022-07-01T01:23:02;95745.22;;;18.25;100.00
71457;BME280;59263;48.160;11.752;2022-07-01T01:25:32;95751.41;;;18.18;98.67
71457;BME280;59263;48.160;11.752;2022-07-01T01:27:59;95757.41;;;18.11;97.23
71457;BME280;59263;48.160;11.752;2022-07-01T01:30:25;95762.59;;;18.05;93.75
71457;BME280;59263;48.160;11.752;2022-07-01T01:32:50;95754.31;;;18.01;94.15
71457;BME280;59263;48.160;11.752;2022-07-01T01:35:16;95761.56;;;17.99;94.98
71457;BME280;59263;48.160;11.752;2022-07-01T01:37:41;95754.31;;;18.01;93.70
71457;BME280;59263;48.160;11.752;2022-07-01T01:40:07;95757.78;;;18.08;92.12
71457;BME280;59263;48.160;11.752;2022-07-01T01:42:34;95751.03;;;17.93;91.19
71457;BME280;59263;48.160;11.752;2022-07-01T01:44:59;95763.75;;;17.96;91.72
71457;BME280;59263;48.160;11.752;2022-07-01T01:47:24;95752.34;;;18.03;88.87
71457;BME280;59263;48.160;11.752;2022-07-01T01:49:50;95746.72;;;18.06;87.68
71457;BME280;59263;48.160;11.752;2022-07-01T01:52:15;95741.06;;;18.03;87.50
71457;BME280;59263;48.160;11.752;2022-07-01T01:54:41;95726.63;;;17.85;91.27
71457;BME280;59263;48.160;11.752;2022-07-01T01:57:06;95723.34;;;17.77;90.61
71457;BME280;59263;48.160;11.752;2022-07-01T01:59:31;95722.25;;;17.71;92.14
71457;BME280;59263;48.160;11.752;2022-07-01T02:01:57;95726.03;;;17.69;94.34
71457;BME280;59263;48.160;11.752;2022-07-01T02:04:22;95725.31;;;17.53;93.47
71457;BME280;59263;48.160;11.752;2022-07-01T02:06:51;95731.69;;;17.44;95.24
71457;BME280;59263;48.160;11.752;2022-07-01T02:09:18;95730.63;;;17.38;96.26
71457;BME280;59263;48.160;11.752;2022-07-01T02:11:43;95729.94;;;17.30;96.92
71457;BME280;59263;48.160;11.752;2022-07-01T02:14:09;95733.31;;;17.24;97.58
71457;BME280;59263;48.160;11.752;2022-07-01T02:16:34;95742.78;;;17.25;97.66
71457;BME280;59263;48.160;11.752;2022-07-01T02:18:59;95754.88;;;17.26;98.13
71457;BME280;59263;48.160;11.752;2022-07-01T02:21:25;95755.16;;;17.16;97.45
71457;BME280;59263;48.160;11.752;2022-07-01T02:23:50;95761.47;;;17.22;99.72
71457;BME280;59263;48.160;11.752;2022-07-01T02:26:17;95766.06;;;17.20;100.00
71457;BME280;59263;48.160;11.752;2022-07-01T02:28:42;95770.56;;;17.26;98.13
71457;BME280;59263;48.160;11.752;2022-07-01T02:31:07;95778.84;;;17.29;99.45
71457;BME280;59263;48.160;11.752;2022-07-01T02:33:33;95790.22;;;17.22;99.27
71457;BME280;59263;48.160;11.752;2022-07-01T02:35:58;95792.53;;;17.31;100.00
71457;BME280;59263;48.160;11.752;2022-07-01T02:38:24;95801.22;;;17.32;100.00
71457;BME280;59263;48.160;11.752;2022-07-01T02:40:49;95804.44;;;17.34;99.17
71457;BME280;59263;48.160;11.752;2022-07-01T02:43:14;95805.06;;;17.36;100.00
71457;BME280;59263;48.160;11.752;2022-07-01T02:45:41;95803.19;;;17.30;100.00
71457;BME280;59263;48.160;11.752;2022-07-01T02:48:07;95813.84;;;17.28;100.00
71457;BME280;59263;48.160;11.752;2022-07-01T02:50:32;95801.56;;;17.29;99.39
71457;BME280;59263;48.160;11.752;2022-07-01T02:52:57;95817.50;;;17.34;100.00
71457;BME280;59263;48.160;11.752;2022-07-01T02:55:23;95811.66;;;17.32;100.00
71457;BME280;59263;48.160;11.752;2022-07-01T02:57:48;95818.88;;;17.30;100.00
71457;BME280;59263;48.160;11.752;2022-07-01T03:00:17;95819.50;;;17.32;100.00
71457;BME280;59263;48.160;11.752;2022-07-01T03:02:43;95824.66;;;17.25;100.00
71457;BME280;59263;48.160;11.752;2022-07-01T03:05:09;95826.47;;;17.25;100.00
71457;BME280;59263;48.160;11.752;2022-07-01T03:07:36;95821.69;;;17.28;100.00
71457;BME280;59263;48.160;11.752;2022-07-01T03:10:04;95825.34;;;17.34;100.00
71457;BME280;59263;48.160;11.752;2022-07-01T03:12:29;95827.25;;;17.40;100.00
71457;BME280;59263;48.160;11.752;2022-07-01T03:14:59;95824.25;;;17.43;100.00
71457;BME280;59263;48.160;11.752;2022-07-01T03:17:26;95826.44;;;17.39;100.00
71457;BME280;59263;48.160;11.752;2022-07-01T03:19:53;95817.38;;;17.42;99.82
71457;BME280;59263;48.160;11.752;2022-07-01T03:22:23;95813.72;;;17.36;100.00
71457;BME280;59263;48.160;11.752;2022-07-01T03:24:49;95824.09;;;17.30;100.00
71457;BME280;59263;48.160;11.752;2022-07-01T03:27:16;95835.75;;;17.27;100.00
71457;BME280;59263;48.160;11.752;2022-07-01T03:29:41;95832.88;;;17.22;100.00
71457;BME280;59263;48.160;11.752;2022-07-01T03:32:07;95837.31;;;17.22;100.00
71457;BME280;59263;48.160;11.752;2022-07-01T03:34:35;95842.53;;;17.22;100.00
71457;BME280;59263;48.160;11.752;2022-07-01T03:37:01;95841.72;;;17.21;100.00
71457;BME280;59263;48.160;11.752;2022-07-01T03:39:26;95839.34;;;17.26;100.00
71457;BME280;59263;48.160;11.752;2022-07-01T03:41:51;95848.00;;;17.27;100.00
71457;BME280;59263;48.160;11.752;2022-07-01T03:44:17;95835.56;;;17.29;100.00
71457;BME280;59263;48.160;11.752;2022-07-01T03:46:42;95829.97;;;17.32;100.00
71457;BME280;59263;48.160;11.752;2022-07-01T03:49:07;95834.66;;;17.36;100.00
71457;BME280;59263;48.160;11.752;2022-07-01T03:51:33;95846.13;;;17.35;99.86
71457;BME280;59263;48.160;11.752;2022-07-01T03:53:59;95850.72;;;17.33;100.00
71457;BME280;59263;48.160;11.752;2022-07-01T03:56:42;95853.75;;;17.37;100.00
71457;BME280;59263;48.160;11.752;2022-07-01T03:59:08;95850.16;;;17.38;99.84
71457;BME280;59263;48.160;11.752;2022-07-01T04:01:33;95857.88;;;17.46;100.00
71457;BME280;59263;48.160;11.752;2022-07-01T04:03:58;95848.41;;;17.45;97.55
71457;BME280;59263;48.160;11.752;2022-07-01T04:06:24;95847.03;;;17.49;98.60
71457;BME280;59263;48.160;11.752;2022-07-01T04:08:49;95844.44;;;17.49;97.97
71457;BME280;59263;48.160;11.752;2022-07-01T04:11:16;95846.81;;;17.44;98.51
71457;BME280;59263;48.160;11.752;2022-07-01T04:13:41;95850.03;;;17.46;99.67
71457;BME280;59263;48.160;11.752;2022-07-01T04:16:15;95850.41;;;17.43;100.00
71457;BME280;59263;48.160;11.752;2022-07-01T04:18:40;95845.00;;;17.45;100.00
71457;BME280;59263;48.160;11.752;2022-07-01T04:21:06;95847.16;;;17.41;100.00
71457;BME280;59263;48.160;11.752;2022-07-01T04:23:50;95846.59;;;17.46;100.00
71457;BME280;59263;48.160;11.752;2022-07-01T04:26:15;95833.97;;;17.49;100.00
71457;BME280;59263;48.160;11.752;2022-07-01T04:28:41;95831.09;;;17.44;100.00
71457;BME280;59263;48.160;11.752;2022-07-01T04:31:07;95832.66;;;17.38;100.00
71457;BME280;59263;48.160;11.752;2022-07-01T04:33:32;95827.81;;;17.35;100.00
71457;BME280;59263;48.160;11.752;2022-07-01T04:35:57;95823.38;;;17.36;100.00
71457;BME280;59263;48.160;11.752;2022-07-01T04:38:23;95820.56;;;17.37;100.00
71457;BME280;59263;48.160;11.752;2022-07-01T04:40:48;95816.94;;;17.38;100.00
71457;BME280;59263;48.160;11.752;2022-07-01T04:43:32;95813.34;;;17.39;100.00
71457;BME280;59263;48.160;11.752;2022-07-01T04:45:57;95818.63;;;17.46;100.00
71457;BME280;59263;48.160;11.752;2022-07-01T04:48:22;95827.50;;;17.45;100.00
71457;BME280;59263;48.160;11.752;2022-07-01T04:50:48;95829.50;;;17.43;100.00
71457;BME280;59263;48.160;11.752;2022-07-01T04:53:14;95833.09;;;17.42;100.00
71457;BME280;59263;48.160;11.752;2022-07-01T04:55:39;95828.66;;;17.42;100.00
71457;BME280;59263;48.160;11.752;2022-07-01T04:58:05;95823.13;;;17.52;100.00
71457;BME280;59263;48.160;11.752;2022-07-01T05:00:30;95823.50;;;17.49;100.00
71457;BME280;59263;48.160;11.752;2022-07-01T05:02:55;95819.16;;;17.56;100.00
71457;BME280;59263;48.160;11.752;2022-07-01T05:05:21;95813.09;;;17.56;100.00
71457;BME280;59263;48.160;11.752;2022-07-01T05:07:46;95808.75;;;17.63;100.00
71457;BME280;59263;48.160;11.752;2022-07-01T05:10:12;95795.72;;;17.70;99.62
71457;BME280;59263;48.160;11.752;2022-07-01T05:12:38;95796.72;;;17.69;100.00
71457;BME280;59263;48.160;11.752;2022-07-01T05:15:04;95796.47;;;17.63;100.00
71457;BME280;59263;48.160;11.752;2022-07-01T05:17:29;95797.47;;;17.62;100.00
71457;BME280;59263;48.160;11.752;2022-07-01T05:20:14;95804.69;;;17.60;99.35
71457;BME280;59263;48.160;11.752;2022-07-01T05:22:58;95807.31;;;17.60;100.00
71457;BME280;59263;48.160;11.752;2022-07-01T05:25:23;95815.22;;;17.67;100.00
71457;BME280;59263;48.160;11.752;2022-07-01T05:27:49;95826.50;;;17.67;98.21
71457;BME280;59263;48.160;11.752;2022-07-01T05:30:14;95832.09;;;17.64;98.26
71457;BME280;59263;48.160;11.752;2022-07-01T05:32:39;95825.75;;;17.74;97.59
71457;BME280;59263;48.160;11.752;2022-07-01T05:35:05;95823.03;;;17.82;96.92
71457;BME280;59263;48.160;11.752;2022-07-01T05:37:30;95818.03;;;17.87;99.41
71457;BME280;59263;48.160;11.752;2022-07-01T05:39:56;95823.91;;;17.89;98.04
71457;BME280;59263;48.160;11.752;2022-07-01T05:42:21;95834.31;;;17.82;96.65
71457;BME280;59263;48.160;11.752;2022-07-01T05:44:46;95833.88;;;17.79;98.68
71457;BME280;59263;48.160;11.752;2022-07-01T05:47:12;95806.97;;;17.85;100.00
71457;BME280;59263;48.160;11.752;2022-07-01T05:49:37;95806.59;;;17.88;100.00
71457;BME280;59263;48.160;11.752;2022-07-01T05:52:02;95827.34;;;17.89;98.35
71457;BME280;59263;48.160;11.752;2022-07-01T05:54:28;95839.25;;;17.92;95.31
71457;BME280;59263;48.160;11.752;2022-07-01T05:56:53;95858.31;;;17.86;96.96
71457;BME280;59263;48.160;11.752;2022-07-01T05:59:18;95872.19;;;17.80;99.61
71457;BME280;59263;48.160;11.752;2022-07-01T06:01:44;95869.78;;;17.85;100.00
71457;BME280;59263;48.160;11.752;2022-07-01T06:04:11;95872.78;;;17.82;100.00
71457;BME280;59263;48.160;11.752;2022-07-01T06:06:36;95876.22;;;17.82;100.00
71457;BME280;59263;48.160;11.752;2022-07-01T06:09:02;95887.88;;;17.80;100.00
71457;BME280;59263;48.160;11.752;2022-07-01T06:11:27;95889.84;;;17.78;99.74
71457;BME280;59263;48.160;11.752;2022-07-01T06:13:52;95877.78;;;17.77;99.24
71457;BME280;59263;48.160;11.752;2022-07-01T06:16:17;95880.78;;;17.95;96.73
71457;BME280;59263;48.160;11.752;2022-07-01T06:18:43;95884.50;;;18.07;96.39
71457;BME280;59263;48.160;11.752;2022-07-01T06:21:08;95893.72;;;18.25;94.15
71457;BME280;59263;48.160;11.752;2022-07-01T06:23:33;95903.84;;;18.06;97.61
71457;BME280;59263;48.160;11.752;2022-07-01T06:25:59;95906.63;;;18.05;99.29
71457;BME280;59263;48.160;11.752;2022-07-01T06:28:24;95904.00;;;18.05;99.36
71457;BME280;59263;48.160;11.752;2022-07-01T06:30:55;95906.56;;;18.20;94.51
71457;BME280;59263;48.160;11.752;2022-07-01T06:33:20;95922.13;;;18.28;93.62
71457;BME280;59263;48.160;11.752;2022-07-01T06:35:45;95931.88;;;18.12;97.39
71457;BME280;59263;48.160;11.752;2022-07-01T06:38:11;95937.47;;;18.09;95.16
71457;BME280;59263;48.160;11.752;2022-07-01T06:40:36;95932.31;;;17.95;96.77
71457;BME280;59263;48.160;11.752;2022-07-01T06:43:01;95933.13;;;18.17;96.28
71457;BME280;59263;48.160;11.752;2022-07-01T06:45:27;95933.38;;;18.22;96.25
71457;BME280;59263;48.160;11.752;2022-07-01T06:47:53;95938.25;;;18.25;93.61
71457;BME280;59263;48.160;11.752;2022-07-01T06:50:18;95938.41;;;18.45;91.18
71457;BME280;59263;48.160;11.752;2022-07-01T06:52:43;95935.66;;;18.53;91.06
71457;BME280;59263;48.160;11.752;2022-07-01T06:55:09;95932.00;;;18.47;91.32
71457;BME280;59263;48.160;11.752;2022-07-01T06:57:34;95922.25;;;18.41;88.11
71457;BME280;59263;48.160;11.752;2022-07-01T06:59:59;95915.03;;;18.43;91.75
71457;BME280;59263;48.160;11.752;2022-07-01T07:02:25;95911.66;;;18.28;91.83
71457;BME280;59263;48.160;11.752;2022-07-01T07:04:50;95912.81;;;18.19;94.51
71457;BME280;59263;48.160;11.752;2022-07-01T07:07:15;95924.47;;;18.16;94.59
71457;BME280;59263;48.160;11.752;2022-07-01T07:09:41;95934.06;;;18.09;95.28
71457;BME280;59263;48.160;11.752;2022-07-01T07:12:07;95929.53;;;18.18;94.99
71457;BME280;59263;48.160;11.752;2022-07-01T07:14:32;95931.50;;;18.16;95.40
71457;BME280;59263;48.160;11.752;2022-07-01T07:16:58;95933.63;;;18.05;95.90
71457;BME280;59263;48.160;11.752;2022-07-01T07:19:23;95934.06;;;18.09;95.00
71457;BME280;59263;48.160;11.752;2022-07-01T07:21:48;95935.25;;;18.06;96.50
71457;BME280;59263;48.160;11.752;2022-07-01T07:24:14;95932.22;;;18.03;96.92
71457;BME280;59263;48.160;11.752;2022-07-01T07:26:39;95937.63;;;18.01;96.15
71457;BME280;59263;48.160;11.752;2022-07-01T07:29:04;95936.63;;;18.02;93.37
71457;BME280;59263;48.160;11.752;2022-07-01T07:31:29;95931.94;;;17.98;92.64
71457;BME280;59263;48.160;11.752;2022-07-01T07:33:55;95922.66;;;17.95;96.84
71457;BME280;59263;48.160;11.752;2022-07-01T07:36:20;95930.47;;;18.10;94.24
71457;BME280;59263;48.160;11.752;2022-07-01T07:38:46;95920.44;;;18.13;92.65
71457;BME280;59263;48.160;11.752;2022-07-01T07:41:11;95916.06;;;18.21;92.51
71457;BME280;59263;48.160;11.752;2022-07-01T07:43:36;95923.50;;;18.45;90.44
71457;BME280;59263;48.160;11.752;2022-07-01T07:46:02;95921.53;;;18.47;91.35
71457;BME280;59263;48.160;11.752;2022-07-01T07:48:28;95917.53;;;18.51;93.05
71457;BME280;59263;48.160;11.752;2022-07-01T07:50:53;95919.63;;;18.62;88.23
71457;BME280;59263;48.160;11.752;2022-07-01T07:53:18;95927.22;;;18.57;90.25
71457;BME280;59263;48.160;11.752;2022-07-01T07:55:43;95923.00;;;18.56;88.30
71457;BME280;59263;48.160;11.752;2022-07-01T07:58:09;95930.78;;;18.50;88.29
71457;BME280;59263;48.160;11.752;2022-07-01T08:00:34;95937.28;;;18.54;89.49
71457;BME280;59263;48.160;11.752;2022-07-01T08:03:00;95948.97;;;18.51;92.13
71457;BME280;59263;48.160;11.752;2022-07-01T08:05:25;95948.84;;;18.38;94.09
71457;BME280;59263;48.160;11.752;2022-07-01T08:07:50;95948.66;;;18.18;96.11
71457;BME280;59263;48.160;11.752;2022-07-01T08:10:15;95956.88;;;17.94;98.78
71457;BME280;59263;48.160;11.752;2022-07-01T08:12:41;95958.38;;;17.66;97.42
71457;BME280;59263;48.160;11.752;2022-07-01T08:15:07;95969.31;;;17.26;100.00
71457;BME280;59263;48.160;11.752;2022-07-01T08:17:32;95988.97;;;16.92;100.00
71457;BME280;59263;48.160;11.752;2022-07-01T08:19:58;95995.22;;;16.83;100.00
71457;BME280;59263;48.160;11.752;2022-07-01T08:22:24;96002.47;;;16.81;100.00
71457;BME280;59263;48.160;11.752;2022-07-01T08:24:49;96003.81;;;16.68;100.00
71457;BME280;59263;48.160;11.752;2022-07-01T08:27:15;96002.00;;;16.54;100.00
71457;BME280;59263;48.160;11.752;2022-07-01T08:29:40;96015.94;;;16.47;100.00
71457;BME280;59263;48.160;11.752;2022-07-01T08:32:07;96022.53;;;16.34;100.00
71457;BME280;59263;48.160;11.752;2022-07-01T08:34:32;96033.56;;;16.21;100.00
71457;BME280;59263;48.160;11.752;2022-07-01T08:36:57;96046.66;;;16.13;100.00
71457;BME280;59263;48.160;11.752;2022-07-01T08:39:23;96050.69;;;15.93;100.00
71457;BME280;59263;48.160;11.752;2022-07-01T08:41:48;96061.69;;;15.64;100.00
71457;BME280;59263;48.160;11.752;2022-07-01T08:44:13;96059.34;;;15.30;100.00
71457;BME280;59263;48.160;11.752;2022-07-01T08:46:39;96073.38;;;15.04;100.00
71457;BME280;59263;48.160;11.752;2022-07-01T08:49:05;96086.25;;;14.97;100.00
71457;BME280;59263;48.160;11.752;2022-07-01T08:51:31;96087.88;;;14.82;100.00
71457;BME280;59263;48.160;11.752;2022-07-01T08:53:56;96108.41;;;14.69;100.00
71457;BME280;59263;48.160;11.752;2022-07-01T08:56:22;96110.91;;;14.28;100.00
71457;BME280;59263;48.160;11.752;2022-07-01T08:59:05;96111.31;;;14.07;100.00
71457;BME280;59263;48.160;11.752;2022-07-01T09:01:32;96109.31;;;14.01;100.00
71457;BME280;59263;48.160;11.752;2022-07-01T09:04:17;96104.78;;;14.03;100.00
71457;BME280;59263;48.160;11.752;2022-07-01T09:06:43;96107.06;;;13.98;100.00
71457;BME280;59263;48.160;11.752;2022-07-01T09:09:17;96111.28;;;13.99;100.00
71457;BME280;59263;48.160;11.752;2022-07-01T09:11:51;96112.50;;;13.78;100.00
71457;BME280;59263;48.160;11.752;2022-07-01T09:16:51;96119.97;;;13.82;100.00
71457;BME280;59263;48.160;11.752;2022-07-01T09:19:19;96129.06;;;13.77;100.00
71457;BME280;59263;48.160;11.752;2022-07-01T09:21:54;96120.09;;;13.72;100.00
71457;BME280;59263;48.160;11.752;2022-07-01T09:24:35;96122.63;;;13.90;100.00
71457;BME280;59263;48.160;11.752;2022-07-01T09:27:11;96118.41;;;13.97;100.00
71457;BME280;59263;48.160;11.752;2022-07-01T09:29:43;96127.09;;;14.06;100.00
71457;BME280;59263;48.160;11.752;2022-07-01T09:32:12;96130.03;;;14.11;100.00
71457;BME280;59263;48.160;11.752;2022-07-01T09:34:41;96123.13;;;13.93;100.00
71457;BME280;59263;48.160;11.752;2022-07-01T09:37:07;96121.00;;;13.89;100.00
71457;BME280;59263;48.160;11.752;2022-07-01T09:39:52;96118.63;;;14.03;100.00
71457;BME280;59263;48.160;11.752;2022-07-01T09:42:20;96116.84;;;14.12;100.00
71457;BME280;59263;48.160;11.752;2022-07-01T09:47:22;96136.34;;;14.08;98.39
71457;BME280;59263;48.160;11.752;2022-07-01T09:49:47;96133.09;;;13.98;97.66
71457;BME280;59263;48.160;11.752;2022-07-01T09:52:12;96138.00;;;14.09;100.00
71457;BME280;59263;48.160;11.752;2022-07-01T09:54:38;96139.31;;;14.13;97.68
71457;BME280;59263;48.160;11.752;2022-07-01T09:57:04;96145.84;;;14.17;99.16
71457;BME280;59263;48.160;11.752;2022-07-01T09:59:29;96147.28;;;14.20;100.00
71457;BME280;59263;48.160;11.752;2022-07-01T10:01:55;96141.00;;;14.31;99.73
71457;BME280;59263;48.160;11.752;2022-07-01T10:04:20;96146.56;;;14.44;99.73
71457;BME280;59263;48.160;11.752;2022-07-01T10:06:58;96146.88;;;14.41;100.00
71457;BME280;59263;48.160;11.752;2022-07-01T10:12:31;96166.09;;;14.40;100.00
71457;BME280;59263;48.160;11.752;2022-07-01T10:14:58;96169.34;;;14.42;100.00
71457;BME280;59263;48.160;11.752;2022-07-01T10:17:28;96176.59;;;14.22;100.00
71457;BME280;59263;48.160;11.752;2022-07-01T10:19:55;96184.22;;;14.15;100.00
71457;BME280;59263;48.160;11.752;2022-07-01T10:22:26;96181.25;;;14.10;100.00
71457;BME280;59263;48.160;11.752;2022-07-01T10:24:52;96184.75;;;13.93;100.00
71457;BME280;59263;48.160;11.752;2022-07-01T10:27:23;96199.03;;;13.89;100.00
71457;BME280;59263;48.160;11.752;2022-07-01T10:29:48;96198.03;;;13.82;100.00
71457;BME280;59263;48.160;11.752;2022-07-01T10:34:45;96207.09;;;13.77;100.00
71457;BME280;59263;48.160;11.752;2022-07-01T10:37:12;96205.19;;;13.79;100.00
71457;BME280;59263;48.160;11.752;2022-07-01T10:39:57;96206.00;;;13.80;100.00
71457;BME280;59263;48.160;11.752;2022-07-01T10:42:57;96203.66;;;13.69;100.00
71457;BME280;59263;48.160;11.752;2022-07-01T10:45:23;96201.91;;;13.77;100.00
71457;BME280;59263;48.160;11.752;2022-07-01T10:48:18;96201.81;;;13.61;100.00
71457;BME280;59263;48.160;11.752;2022-07-01T10:50:46;96205.88;;;13.64;100.00
71457;BME280;59263;48.160;11.752;2022-07-01T10:53:12;96207.69;;;13.71;100.00
71457;BME280;59263;48.160;11.752;2022-07-01T10:55:40;96199.97;;;13.79;100.00
71457;BME280;59263;48.160;11.752;2022-07-01T10:58:06;96206.84;;;13.89;100.00
71457;BME280;59263;48.160;11.752;2022-07-01T11:00:33;96206.81;;;13.80;100.00
71457;BME280;59263;48.160;11.752;2022-07-01T11:05:36;96199.34;;;13.86;100.00
71457;BME280;59263;48.160;11.752;2022-07-01T11:08:04;96204.44;;;13.95;100.00
71457;BME280;59263;48.160;11.752;2022-07-01T11:10:30;96194.69;;;13.97;100.00
71457;BME280;59263;48.160;11.752;2022-07-01T11:12:55;96209.22;;;14.08;100.00
71457;BME280;59263;48.160;11.752;2022-07-01T11:15:21;96208.59;;;14.14;100.00
71457;BME280;59263;48.160;11.752;2022-07-01T11:17:49;96222.69;;;14.03;100.00
71457;BME280;59263;48.160;11.752;2022-07-01T11:20:15;96218.59;;;14.01;100.00
71457;BME280;59263;48.160;11.752;2022-07-01T11:22:41;96220.63;;;14.15;100.00
71457;BME280;59263;48.160;11.752;2022-07-01T11:25:08;96216.22;;;14.08;100.00
71457;BME280;59263;48.160;11.752;2022-07-01T11:27:35;96206.66;;;14.16;100.00
71457;BME280;59263;48.160;11.752;2022-07-01T11:30:06;96201.66;;;14.23;100.00
71457;BME280;59263;48.160;11.752;2022-07-01T11:32:39;96203.28;;;14.24;100.00
71457;BME280;59263;48.160;11.752;2022-07-01T11:35:12;96228.75;;;14.12;100.00
71457;BME280;59263;48.160;11.752;2022-07-01T11:38:09;96219.94;;;14.05;100.00
71457;BME280;59263;48.160;11.752;2022-07-01T11:40:54;96217.41;;;14.13;100.00
71457;BME280;59263;48.160;11.752;2022-07-01T11:43:25;96223.50;;;14.04;100.00
71457;BME280;59263;48.160;11.752;2022-07-01T11:45:52;96225.78;;;13.99;100.00
71457;BME280;59263;48.160;11.752;2022-07-01T11:50:55;96226.06;;;13.96;100.00
71457;BME280;59263;48.160;11.752;2022-07-01T11:53:21;96218.59;;;14.01;100.00
71457;BME280;59263;48.160;11.752;2022-07-01T11:55:46;96209.44;;;13.89;100.00
71457;BME280;59263;48.160;11.752;2022-07-01T11:58:12;96217.53;;;13.86;100.00
71457;BME280;59263;48.160;11.752;2022-07-01T12:00:37;96219.06;;;13.70;100.00
71457;BME280;59263;48.160;11.752;2022-07-01T12:03:04;96243.72;;;13.58;100.00
71457;BME280;59263;48.160;11.752;2022-07-01T12:05:31;96253.97;;;13.42;100.00
71457;BME280;59263;48.160;11.752;2022-07-01T12:07:57;96282.69;;;13.22;100.00
71457;BME280;59263;48.160;11.752;2022-07-01T12:10:24;96270.25;;;13.16;100.00
71457;BME280;59263;48.160;11.752;2022-07-01T12:12:50;96238.50;;;13.22;100.00
71457;BME280;59263;48.160;11.752;2022-07-01T12:15:16;96236.97;;;13.29;100.00
71457;BME280;59263;48.160;11.752;2022-07-01T12:17:41;96241.38;;;13.19;100.00
71457;BME280;59263;48.160;11.752;2022-07-01T12:20:07;96244.28;;;13.16;100.00
71457;BME280;59263;48.160;11.752;2022-07-01T12:22:33;96240.66;;;13.27;100.00
71457;BME280;59263;48.160;11.752;2022-07-01T12:25:12;96208.94;;;13.41;100.00
71457;BME280;59263;48.160;11.752;2022-07-01T12:27:39;96202.63;;;13.62;100.00
71457;BME280;59263;48.160;11.752;2022-07-01T12:30:07;96218.47;;;13.76;100.00
71457;BME280;59263;48.160;11.752;2022-07-01T12:32:35;96238.31;;;13.77;100.00
71457;BME280;59263;48.160;11.752;2022-07-01T12:35:04;96252.59;;;13.73;100.00
71457;BME280;59263;48.160;11.752;2022-07-01T12:37:30;96250.03;;;13.82;100.00
71457;BME280;59263;48.160;11.752;2022-07-01T12:40:00;96251.66;;;13.83;100.00
71457;BME280;59263;48.160;11.752;2022-07-01T12:42:36;96255.75;;;13.85;100.00
71457;BME280;59263;48.160;11.752;2022-07-01T12:45:06;96269.59;;;13.68;100.00
71457;BME280;59263;48.160;11.752;2022-07-01T12:47:37;96279.19;;;13.67;100.00
71457;BME280;59263;48.160;11.752;2022-07-01T12:50:22;96303.75;;;13.47;100.00
71457;BME280;59263;48.160;11.752;2022-07-01T12:53:05;96323.50;;;13.40;100.00
71457;BME280;59263;48.160;11.752;2022-07-01T12:55:44;96322.16;;;13.36;100.00
71457;BME280;59263;48.160;11.752;2022-07-01T12:58:15;96320.16;;;13.47;100.00